Kinoura — 3FHE5 — position and weather

sailwx.info

Track history (hours):
 
Tides and Currents Weather Stations Pressure Air Temp Water Temp Dewpoint Dewpoint Depression Visibility Wind Speed Wind Dir Waves Ship Positions

Kinoura

Last reported at 2018-Apr-26 08:48 UTC. Time now 2018-Apr-27 06:52 UTC.
Position N 36°05' E 130°51'.

Length 227 m; draft 7.1 m.

Type: Cargo ship. MMSI: 373041000.

Date/timePositionNaut miles runAvg speedWind from/ knotsBaromVisibWave heightAir tempDewpointWater temp
2018-Apr-26 08:48N 36°05' E 130°51'3112.7
2018-Apr-26 06:19N 35°37' E 130°34'513.7
2018-Apr-26 05:59N 35°33' E 130°32'613.4
2018-Apr-26 05:30N 35°27' E 130°28'713.2
2018-Apr-26 05:00N 35°21' E 130°25'713.3
2018-Apr-26 04:27N 35°14' E 130°21'613.2
2018-Apr-26 04:00N 35°09' E 130°18'713.3
2018-Apr-26 03:30N 35°03' E 130°14'913.3
2018-Apr-26 02:48N 34°54' E 130°09'413.4
2018-Apr-26 02:30N 34°51' E 130°07'713.4
2018-Apr-26 02:00N 34°45' E 130°03'713.4
2018-Apr-26 01:30N 34°39' E 129°60'713.5
2018-Apr-26 01:00N 34°33' E 129°56'713.6
2018-Apr-26 00:30N 34°26' E 129°53'713.6
2018-Apr-26 00:00N 34°20' E 129°49'1613.5
2018-Apr-25 22:48N 34°06' E 129°41'513.4
2018-Apr-25 22:25N 34°01' E 129°38'513.1
2018-Apr-25 22:00N 33°56' E 129°35'812.8
2018-Apr-25 21:22N 33°49' E 129°31'512.6
2018-Apr-25 21:00N 33°45' E 129°29'712.6
2018-Apr-25 20:26N 33°38' E 129°25'612.6
2018-Apr-25 19:57N 33°33' E 129°22'612.4
2018-Apr-25 19:28N 33°27' E 129°19'612.2
2018-Apr-25 18:57N 33°21' E 129°17'612.5
2018-Apr-25 18:30N 33°16' E 129°17'612.3
2018-Apr-25 18:00N 33°09' E 129°17'612.5
2018-Apr-25 17:30N 33°04' E 129°21'  
Track history (hours):
 
Tides and Currents Weather Stations Pressure Air Temp Water Temp Dewpoint Dewpoint Depression Visibility Wind Speed Wind Dir Waves Ship Positions

Kinoura

Last reported at 2018-Apr-26 08:48 UTC. Time now 2018-Apr-27 06:52 UTC.
Position N 36°05' E 130°51'.

Length 227 m; draft 7.1 m.

Type: Cargo ship. MMSI: 373041000.

Date/timePositionNaut miles runAvg speedWind from/ knotsBaromVisibWave heightAir tempDewpointWater temp
2018-Apr-26 08:48N 36°05' E 130°51'3112.7
2018-Apr-26 06:19N 35°37' E 130°34'513.7
2018-Apr-26 05:59N 35°33' E 130°32'613.4
2018-Apr-26 05:30N 35°27' E 130°28'713.2
2018-Apr-26 05:00N 35°21' E 130°25'713.3
2018-Apr-26 04:27N 35°14' E 130°21'613.2
2018-Apr-26 04:00N 35°09' E 130°18'713.3
2018-Apr-26 03:30N 35°03' E 130°14'913.3
2018-Apr-26 02:48N 34°54' E 130°09'413.4
2018-Apr-26 02:30N 34°51' E 130°07'713.4
2018-Apr-26 02:00N 34°45' E 130°03'713.4
2018-Apr-26 01:30N 34°39' E 129°60'713.5
2018-Apr-26 01:00N 34°33' E 129°56'713.6
2018-Apr-26 00:30N 34°26' E 129°53'713.6
2018-Apr-26 00:00N 34°20' E 129°49'1613.5
2018-Apr-25 22:48N 34°06' E 129°41'513.4
2018-Apr-25 22:25N 34°01' E 129°38'513.1
2018-Apr-25 22:00N 33°56' E 129°35'812.8
2018-Apr-25 21:22N 33°49' E 129°31'512.6
2018-Apr-25 21:00N 33°45' E 129°29'712.6
2018-Apr-25 20:26N 33°38' E 129°25'612.6
2018-Apr-25 19:57N 33°33' E 129°22'612.4
2018-Apr-25 19:28N 33°27' E 129°19'612.2
2018-Apr-25 18:57N 33°21' E 129°17'612.5
2018-Apr-25 18:30N 33°16' E 129°17'612.3
2018-Apr-25 18:00N 33°09' E 129°17'612.5
2018-Apr-25 17:30N 33°04' E 129°21'  

Dump ship's entire track history